Time;durP1;ratioP1;P1;durP2;ratioP2;P2;SDS_P1;SDS_P2;PMS_P1;PMS_P2;Temp;Humidity;BMP_temperature;BMP_pressure;BME280_temperature;BME280_humidity;BME280_pressure;Samples;Min_cycle;Max_cycle;Signal;HPM_P1;HPM_P2
2022/08/05 00:01:54;;;;;;;3.87;3.57;;;;;;;18.90;71.88;97538.75;7616634;23;20570;-68
2022/08/05 00:05:08;;;;;;;3.03;2.83;;;;;;;18.86;72.08;97534.81;7616216;23;20212;-67
2022/08/05 00:08:30;;;;;;;4.00;2.80;;;;;;;18.77;72.40;97534.00;7594466;23;20242;-67
2022/08/05 00:11:36;;;;;;;3.60;3.30;;;;;;;18.75;72.65;97536.03;7614762;23;20215;-66
2022/08/05 00:14:56;;;;;;;3.10;2.70;;;;;;;18.73;73.06;97526.53;7614923;23;20209;-67
2022/08/05 00:17:58;;;;;;;2.83;2.63;;;;;;;18.74;72.74;97528.19;7615518;23;20220;-68
2022/08/05 00:21:05;;;;;;;3.43;3.13;;;;;;;18.66;73.05;97521.06;7590950;23;20208;-67
2022/08/05 00:24:09;;;;;;;4.60;4.20;;;;;;;18.57;73.58;97524.78;7590203;23;20529;-67
2022/08/05 00:27:20;;;;;;;4.70;3.07;;;;;;;18.50;73.69;97520.28;7617083;23;20212;-67
2022/08/05 00:30:29;;;;;;;5.60;5.10;;;;;;;18.53;73.71;97514.59;7589615;23;20227;-66
2022/08/05 00:33:34;;;;;;;3.10;2.90;;;;;;;18.49;73.75;97516.78;7615005;23;20212;-66
2022/08/05 00:36:56;;;;;;;4.00;3.13;;;;;;;18.43;74.16;97510.31;7593309;23;20401;-66
2022/08/05 00:40:14;;;;;;;4.13;3.00;;;;;;;18.54;73.73;97505.59;7615822;23;20593;-67
2022/08/05 00:43:30;;;;;;;3.13;2.83;;;;;;;18.53;73.57;97502.06;7614813;23;20212;-67
2022/08/05 00:46:48;;;;;;;4.83;4.40;;;;;;;18.49;73.86;97510.63;7615242;23;20209;-67
2022/08/05 00:50:06;;;;;;;3.97;3.10;;;;;;;18.37;74.48;97505.66;7616257;23;20287;-67
2022/08/05 00:53:08;;;;;;;11.03;9.53;;;;;;;18.36;74.44;97503.19;7622153;23;20216;-67
2022/08/05 00:56:30;;;;;;;5.40;4.90;;;;;;;18.33;74.26;97503.53;7569001;23;20216;-67
2022/08/05 00:59:32;;;;;;;4.23;3.80;;;;;;;18.37;74.52;97499.50;7590176;23;20632;-67
2022/08/05 01:02:45;;;;;;;3.33;3.13;;;;;;;18.26;74.86;97498.06;7587796;23;20665;-67
2022/08/05 01:05:51;;;;;;;4.07;3.77;;;;;;;18.23;74.92;97495.75;7614758;23;20212;-67
2022/08/05 01:08:55;;;;;;;5.13;3.43;;;;;;;18.22;74.89;97482.56;7614287;23;20227;-67
2022/08/05 01:12:05;;;;;;;3.73;3.43;;;;;;;18.18;75.17;97482.06;7588799;23;20209;-67
2022/08/05 01:15:24;;;;;;;3.40;3.10;;;;;;;18.11;75.35;97483.78;7614394;23;20573;-67
2022/08/05 01:18:42;;;;;;;3.40;3.20;;;;;;;18.09;75.12;97480.44;7587626;23;20212;-67
2022/08/05 01:22:14;;;;;;;3.40;3.10;;;;;;;18.04;75.74;97482.84;7614224;23;20518;-67
2022/08/05 01:25:42;;;;;;;3.30;3.00;;;;;;;18.01;76.19;97481.34;7614518;23;20212;-67
2022/08/05 01:29:04;;;;;;;3.40;3.20;;;;;;;18.00;76.22;97477.00;7613346;23;20243;-67
2022/08/05 01:32:10;;;;;;;5.03;4.63;;;;;;;17.98;76.59;97487.00;7614386;23;20259;-67
2022/08/05 01:35:25;;;;;;;3.50;3.20;;;;;;;17.95;77.08;97489.22;7614613;23;20660;-67
2022/08/05 01:38:49;;;;;;;4.00;3.60;;;;;;;17.98;76.82;97487.00;7593022;23;20223;-67
2022/08/05 01:41:53;;;;;;;3.60;3.30;;;;;;;17.93;76.96;97481.38;7615355;23;20236;-67
2022/08/05 01:44:58;;;;;;;7.47;5.97;;;;;;;17.89;77.28;97477.38;7614443;23;20264;-67
2022/08/05 01:48:05;;;;;;;6.23;5.37;;;;;;;17.90;77.01;97475.53;7565080;23;20645;-67
2022/08/05 01:51:13;;;;;;;3.80;3.50;;;;;;;17.83;77.53;97475.41;7589113;23;20181;-67
2022/08/05 01:54:19;;;;;;;3.97;3.67;;;;;;;17.76;77.71;97469.13;7587892;23;20212;-67
2022/08/05 01:57:31;;;;;;;3.93;3.63;;;;;;;17.76;77.87;97466.44;7588767;23;20283;-67
2022/08/05 02:00:56;;;;;;;4.50;4.10;;;;;;;17.73;78.14;97466.78;7569761;23;20523;-67
2022/08/05 02:04:00;;;;;;;4.07;3.73;;;;;;;17.73;78.11;97472.13;7590300;23;20259;-67
2022/08/05 02:07:02;;;;;;;4.93;4.53;;;;;;;17.70;78.27;97462.63;7589326;23;20213;-67
2022/08/05 02:10:07;;;;;;;10.37;9.27;;;;;;;17.68;78.29;97461.13;7591404;23;20255;-67
2022/08/05 02:13:12;;;;;;;11.43;10.13;;;;;;;17.67;78.34;97462.94;7618119;23;20229;-67
2022/08/05 02:16:23;;;;;;;10.70;8.90;;;;;;;17.68;78.77;97461.94;7616620;23;20240;-67
2022/08/05 02:19:51;;;;;;;7.27;6.53;;;;;;;17.69;78.92;97457.44;7590792;23;20219;-67
2022/08/05 02:23:00;;;;;;;4.40;4.00;;;;;;;17.64;78.92;97459.81;7573923;23;20239;-67
2022/08/05 02:26:05;;;;;;;5.23;4.83;;;;;;;17.57;79.04;97464.97;7617300;23;20216;-67
2022/08/05 02:29:12;;;;;;;4.47;4.07;;;;;;;17.52;79.37;97458.50;7617445;23;20212;-67
2022/08/05 02:32:29;;;;;;;4.30;3.90;;;;;;;17.50;79.71;97455.97;7617286;23;20216;-67
2022/08/05 02:35:36;;;;;;;7.43;3.70;;;;;;;17.51;79.51;97452.31;7616298;23;20580;-67
2022/08/05 02:38:57;;;;;;;4.27;3.87;;;;;;;17.56;79.29;97451.81;7615781;23;20228;-67
2022/08/05 02:42:00;;;;;;;3.63;2.87;;;;;;;17.53;79.13;97454.81;7590730;23;20307;-67
2022/08/05 02:45:04;;;;;;;3.50;3.20;;;;;;;17.54;79.42;97459.16;7590096;23;20220;-68
2022/08/05 02:48:09;;;;;;;3.77;3.47;;;;;;;17.53;79.83;97446.81;7620545;23;20176;-68
2022/08/05 02:51:14;;;;;;;3.43;3.10;;;;;;;17.53;79.54;97444.13;7591500;23;20514;-67
2022/08/05 02:54:18;;;;;;;3.40;3.10;;;;;;;17.52;79.42;97442.47;7616713;23;20228;-67
2022/08/05 02:57:38;;;;;;;5.87;3.50;;;;;;;17.48;79.49;97452.66;7570311;23;21765;-67
2022/08/05 03:01:01;;;;;;;3.40;3.10;;;;;;;17.53;79.30;97452.97;7618025;23;20208;-67
2022/08/05 03:04:06;;;;;;;3.07;2.87;;;;;;;17.48;79.45;97451.81;7616726;23;20570;-67
2022/08/05 03:07:17;;;;;;;3.77;3.47;;;;;;;17.45;79.99;97447.69;7616817;23;20212;-67
2022/08/05 03:10:45;;;;;;;3.30;3.00;;;;;;;17.44;79.93;97448.69;7595228;23;20296;-67
2022/08/05 03:14:07;;;;;;;3.50;3.20;;;;;;;17.40;80.16;97441.19;7616985;23;20215;-67
2022/08/05 03:17:13;;;;;;;3.47;3.00;;;;;;;17.39;80.12;97439.50;7617107;23;20343;-67
2022/08/05 03:20:15;;;;;;;3.57;3.27;;;;;;;17.34;80.28;97438.22;7616524;23;20283;-67
2022/08/05 03:23:20;;;;;;;3.37;3.07;;;;;;;17.32;80.32;97434.88;7567857;23;20239;-68
2022/08/05 03:26:25;;;;;;;3.60;3.30;;;;;;;17.30;80.43;97436.88;7616656;23;20412;-67
2022/08/05 03:29:33;;;;;;;3.57;3.27;;;;;;;17.28;80.57;97436.19;7590387;23;20343;-67
2022/08/05 03:32:55;;;;;;;3.83;3.53;;;;;;;17.25;80.94;97428.56;7616647;23;20213;-67
2022/08/05 03:35:58;;;;;;;4.83;3.83;;;;;;;17.26;81.04;97434.72;7590019;23;21926;-67
2022/08/05 03:39:06;;;;;;;3.67;3.37;;;;;;;17.27;80.76;97436.38;7589565;23;20212;-67
2022/08/05 03:42:13;;;;;;;3.80;3.50;;;;;;;17.23;81.12;97438.56;7615233;23;20208;-68
2022/08/05 03:45:16;;;;;;;3.60;3.30;;;;;;;17.26;80.99;97437.41;7615799;23;20184;-67
2022/08/05 03:48:23;;;;;;;4.50;3.40;;;;;;;17.24;81.25;97439.41;7615539;23;20227;-67
2022/08/05 03:51:50;;;;;;;3.17;2.97;;;;;;;17.18;81.13;97437.41;7591284;23;20212;-67
2022/08/05 03:55:26;;;;;;;3.43;3.13;;;;;;;17.16;81.25;97442.09;7590102;23;20221;-68
2022/08/05 03:58:52;;;;;;;3.80;3.50;;;;;;;17.17;81.60;97443.75;7616456;23;20696;-68
2022/08/05 04:01:56;;;;;;;3.70;3.23;;;;;;;17.26;80.99;97445.41;7591032;23;20222;-67
2022/08/05 04:05:01;;;;;;;3.80;3.50;;;;;;;17.27;80.78;97444.38;7615919;23;20216;-68
2022/08/05 04:08:07;;;;;;;3.73;3.43;;;;;;;17.24;81.00;97442.06;7566446;23;20212;-67
2022/08/05 04:11:29;;;;;;;3.50;3.20;;;;;;;17.25;80.85;97438.41;7615586;23;20591;-68
2022/08/05 04:14:51;;;;;;;3.30;3.10;;;;;;;17.26;81.11;97434.72;7615525;23;20212;-68
2022/08/05 04:18:02;;;;;;;3.40;3.10;;;;;;;17.34;81.01;97448.03;7597020;23;20536;-67
2022/08/05 04:21:07;;;;;;;4.10;3.33;;;;;;;17.34;81.00;97440.88;7613920;23;20627;-68
2022/08/05 04:24:12;;;;;;;3.73;3.43;;;;;;;17.34;81.10;97443.53;7615131;23;20582;-67
2022/08/05 04:27:20;;;;;;;4.00;3.53;;;;;;;17.39;81.01;97440.34;7615425;23;20570;-67
2022/08/05 04:30:43;;;;;;;3.60;3.30;;;;;;;17.50;80.51;97439.97;7613840;23;20235;-67
2022/08/05 04:33:45;;;;;;;3.90;3.60;;;;;;;17.48;80.55;97436.63;7614359;23;20334;-68
2022/08/05 04:37:07;;;;;;;3.43;3.23;;;;;;;17.46;80.67;97433.34;7592236;23;20690;-68
2022/08/05 04:40:10;;;;;;;3.77;3.47;;;;;;;17.49;80.89;97432.97;7589478;23;20668;-67
2022/08/05 04:43:12;;;;;;;3.80;3.50;;;;;;;17.58;80.49;97437.28;7615325;23;20343;-68
2022/08/05 04:46:17;;;;;;;4.10;3.80;;;;;;;17.58;80.15;97434.59;7615694;23;20212;-67
2022/08/05 04:49:29;;;;;;;3.33;3.13;;;;;;;17.54;80.76;97435.13;7616400;23;20677;-67
2022/08/05 04:52:51;;;;;;;3.90;3.57;;;;;;;17.57;80.85;97438.28;7614468;23;20752;-68
2022/08/05 04:55:53;;;;;;;3.20;3.00;;;;;;;17.60;80.67;97442.44;7614483;23;20258;-67
2022/08/05 04:59:15;;;;;;;3.30;3.00;;;;;;;17.64;80.71;97438.47;7588145;23;20220;-68
2022/08/05 05:02:26;;;;;;;3.50;3.20;;;;;;;17.66;80.50;97431.13;7616015;23;20263;-68
2022/08/05 05:05:42;;;;;;;3.93;3.63;;;;;;;17.64;80.40;97433.13;7588281;23;20218;-68
2022/08/05 05:09:04;;;;;;;3.97;3.23;;;;;;;17.73;80.35;97432.09;7592981;23;20208;-67
2022/08/05 05:12:07;;;;;;;3.60;3.30;;;;;;;17.77;80.01;97433.38;7615702;23;20614;-67
2022/08/05 05:15:12;;;;;;;5.63;3.43;;;;;;;17.80;80.15;97429.53;7589673;23;20180;-67
2022/08/05 05:18:18;;;;;;;3.33;3.03;;;;;;;17.84;79.92;97425.53;7614959;23;20313;-67
2022/08/05 05:21:33;;;;;;;5.20;3.20;;;;;;;17.92;80.03;97428.97;7619895;23;20664;-68
2022/08/05 05:24:35;;;;;;;3.77;3.47;;;;;;;18.00;79.97;97430.75;7588365;23;20208;-68
2022/08/05 05:27:57;;;;;;;4.20;3.80;;;;;;;18.06;79.65;97435.41;7614158;23;20223;-68
2022/08/05 05:30:59;;;;;;;4.40;3.40;;;;;;;18.15;79.24;97430.84;7588734;23;20220;-67
2022/08/05 05:34:09;;;;;;;3.93;3.63;;;;;;;18.23;79.13;97431.63;7614706;23;20209;-67
2022/08/05 05:37:13;;;;;;;3.70;3.40;;;;;;;18.26;79.05;97435.81;7588377;23;20677;-67
2022/08/05 05:40:21;;;;;;;4.43;3.60;;;;;;;18.26;78.82;97431.28;7614653;23;20590;-67
2022/08/05 05:43:26;;;;;;;3.10;2.90;;;;;;;18.29;79.08;97432.75;7614488;23;20693;-67
2022/08/05 05:46:48;;;;;;;3.77;3.47;;;;;;;18.40;78.92;97432.34;7615843;23;20219;-67
2022/08/05 05:49:52;;;;;;;3.83;3.53;;;;;;;18.50;78.33;97424.09;7613644;23;20263;-66
2022/08/05 05:53:02;;;;;;;3.60;3.30;;;;;;;18.57;78.28;97435.72;7614909;23;20216;-67
2022/08/05 05:56:22;;;;;;;3.50;3.20;;;;;;;18.60;78.20;97436.22;7587970;23;20208;-67
2022/08/05 05:59:32;;;;;;;3.90;3.60;;;;;;;18.68;78.11;97429.97;7587954;23;20209;-67
2022/08/05 06:02:42;;;;;;;4.83;3.63;;;;;;;18.74;78.03;97432.78;7614615;23;20209;-67
2022/08/05 06:05:44;;;;;;;3.50;3.30;;;;;;;18.80;77.75;97440.06;7614392;23;20225;-67
2022/08/05 06:08:55;;;;;;;4.03;3.73;;;;;;;18.87;77.74;97439.34;7613146;23;20220;-67
2022/08/05 06:11:57;;;;;;;3.70;3.40;;;;;;;18.93;77.76;97435.94;7615223;23;20696;-67
2022/08/05 06:15:05;;;;;;;3.73;3.43;;;;;;;19.02;77.25;97429.50;7614103;23;20649;-67
2022/08/05 06:18:09;;;;;;;4.00;3.60;;;;;;;19.08;77.26;97434.94;7587262;23;20525;-66
2022/08/05 06:21:12;;;;;;;3.93;3.63;;;;;;;19.17;77.09;97433.84;7614950;23;20191;-67
2022/08/05 06:24:19;;;;;;;3.53;3.13;;;;;;;19.26;76.79;97431.94;7589151;23;20520;-67
2022/08/05 06:27:28;;;;;;;4.37;3.40;;;;;;;19.34;76.71;97431.84;7614053;23;20677;-67
2022/08/05 06:30:50;;;;;;;3.67;3.37;;;;;;;19.48;75.93;97439.06;7587251;23;20212;-67
2022/08/05 06:33:52;;;;;;;3.57;3.27;;;;;;;19.60;75.64;97435.94;7587938;23;20215;-67
2022/08/05 06:37:08;;;;;;;3.67;3.47;;;;;;;19.75;75.29;97442.94;7613394;23;20271;-67
2022/08/05 06:40:13;;;;;;;4.20;3.50;;;;;;;19.94;74.40;97452.25;7592951;23;20213;-66
2022/08/05 06:43:22;;;;;;;3.20;3.00;;;;;;;20.13;73.87;97454.34;7615741;23;20220;-67
2022/08/05 06:46:44;;;;;;;3.90;3.57;;;;;;;20.39;72.87;97450.28;7613784;23;20673;-67
2022/08/05 06:49:51;;;;;;;3.23;2.97;;;;;;;20.66;72.02;97449.56;7613777;23;20270;-68
2022/08/05 06:53:01;;;;;;;4.47;3.20;;;;;;;21.04;70.47;97457.31;7587776;23;20658;-67
2022/08/05 06:56:12;;;;;;;3.33;3.03;;;;;;;21.35;69.95;97442.50;7589836;23;20208;-68
2022/08/05 06:59:27;;;;;;;3.87;2.90;;;;;;;21.61;68.63;97444.50;7589784;23;20295;-67
2022/08/05 07:02:46;;;;;;;3.10;2.90;;;;;;;21.98;66.89;97447.81;7615293;23;20209;-67
2022/08/05 07:05:55;;;;;;;3.10;2.80;;;;;;;22.34;66.02;97444.84;7617184;23;20584;-67
2022/08/05 07:08:58;;;;;;;3.40;3.00;;;;;;;22.66;65.33;97444.03;7616166;23;20212;-68
2022/08/05 07:12:05;;;;;;;2.90;2.70;;;;;;;23.02;64.31;97446.41;7590509;23;20203;-64
2022/08/05 07:18:49;;;;;;;2.73;2.53;;;;;;;23.77;61.06;97449.59;7615794;23;20653;-67
2022/08/05 07:21:52;;;;;;;3.37;2.80;;;;;;;24.17;59.90;97445.72;7565806;23;20204;-68
2022/08/05 07:25:00;;;;;;;3.97;2.60;;;;;;;24.71;57.83;97440.88;7615907;23;20208;-68
2022/08/05 07:28:23;;;;;;;3.37;2.60;;;;;;;25.29;56.01;97426.09;7615977;23;20224;-68
2022/08/05 07:31:26;;;;;;;2.77;2.57;;;;;;;25.55;55.83;97441.22;7589933;23;20695;-68
2022/08/05 07:34:48;;;;;;;2.80;2.60;;;;;;;26.04;54.52;97436.75;7615940;23;20233;-68
2022/08/05 07:37:58;;;;;;;4.03;2.63;;;;;;;26.51;52.26;97442.38;7588335;23;20235;-68
2022/08/05 07:41:07;;;;;;;3.83;2.95;;;;;;;26.87;50.30;97441.41;7589133;23;20214;-68
2022/08/05 07:44:29;;;;;;;3.85;3.00;;;;;;;27.39;48.87;97440.56;7616425;23;20284;-68
2022/08/05 07:47:31;;;;;;;3.83;2.55;;;;;;;27.65;48.32;97439.28;7615586;23;20204;-68
2022/08/05 07:50:43;;;;;;;3.92;2.75;;;;;;;28.01;47.62;97446.31;7589957;23;20766;-68
2022/08/05 07:53:45;;;;;;;3.45;2.60;;;;;;;28.39;46.26;97447.63;7589285;23;20224;-68
2022/08/05 07:56:52;;;;;;;3.47;3.17;;;;;;;28.64;45.82;97435.38;7615753;23;20213;-68
2022/08/05 08:00:15;;;;;;;3.40;3.10;;;;;;;28.89;45.18;97451.31;7615062;23;20217;-68
2022/08/05 08:03:18;;;;;;;3.30;3.08;;;;;;;29.23;44.02;97443.19;7617200;23;20573;-68
2022/08/05 08:06:22;;;;;;;4.40;2.90;;;;;;;29.48;44.06;97445.50;7615110;23;20633;-68
2022/08/05 08:09:28;;;;;;;3.15;2.85;;;;;;;29.76;43.69;97442.63;7589694;23;20319;-67
2022/08/05 08:12:32;;;;;;;3.15;2.85;;;;;;;30.06;43.23;97444.97;7615684;23;20232;-68
2022/08/05 08:15:50;;;;;;;3.83;2.55;;;;;;;30.51;42.09;97441.16;7615616;23;20232;-69
2022/08/05 08:19:12;;;;;;;2.67;2.47;;;;;;;30.94;41.54;97440.25;7614957;23;20213;-68
2022/08/05 08:22:34;;;;;;;2.13;2.03;;;;;;;31.39;40.04;97442.53;7616026;23;20303;-68
2022/08/05 08:25:37;;;;;;;3.05;2.80;;;;;;;31.54;38.81;97440.72;7590726;23;20235;-68
2022/08/05 08:29:01;;;;;;;3.25;3.00;;;;;;;31.58;39.19;97445.66;7616306;23;20550;-68
2022/08/05 08:32:23;;;;;;;3.45;3.15;;;;;;;31.80;37.57;97433.56;7589775;23;20215;-68
2022/08/05 08:35:29;;;;;;;6.38;3.15;;;;;;;31.87;36.77;97436.84;7589425;23;20701;-69
2022/08/05 08:38:36;;;;;;;4.05;3.50;;;;;;;31.99;35.53;97431.19;7614996;23;20247;-68
2022/08/05 08:41:41;;;;;;;6.20;3.22;;;;;;;32.21;34.74;97436.50;7589701;23;20630;-68
2022/08/05 08:45:02;;;;;;;3.30;3.08;;;;;;;32.55;33.82;97443.16;7615917;23;20716;-69
2022/08/05 08:48:25;;;;;;;3.55;3.30;;;;;;;32.50;35.18;97429.50;7615210;23;20860;-69
2022/08/05 08:51:53;;;;;;;4.53;3.00;;;;;;;32.89;35.84;97435.31;7615301;23;20624;-69
2022/08/05 08:55:14;;;;;;;3.58;2.90;;;;;;;32.99;34.28;97432.59;7614674;23;20535;-69
2022/08/05 08:58:34;;;;;;;3.00;2.80;;;;;;;33.42;35.07;97424.97;7592547;23;20216;-69
2022/08/05 09:01:49;;;;;;;3.72;3.30;;;;;;;33.71;33.84;97434.22;7591305;23;20219;-69
2022/08/05 09:04:58;;;;;;;3.60;3.30;;;;;;;33.92;33.59;97431.44;7615676;23;20219;-69
2022/08/05 09:08:18;;;;;;;3.45;3.13;;;;;;;34.15;33.82;97427.22;7614924;23;20212;-69
2022/08/05 09:11:27;;;;;;;2.80;2.60;;;;;;;34.44;34.00;97431.78;7614838;23;20217;-69
2022/08/05 09:14:50;;;;;;;3.22;2.90;;;;;;;34.73;33.59;97433.81;7593475;23;20220;-67
2022/08/05 09:18:08;;;;;;;2.90;2.70;;;;;;;35.04;32.24;97439.94;7588225;23;20213;-68
2022/08/05 09:21:14;;;;;;;3.45;3.15;;;;;;;34.82;30.87;97428.59;7614604;23;20176;-69
2022/08/05 09:24:36;;;;;;;3.47;3.17;;;;;;;35.12;32.26;97433.84;7614269;23;20275;-69
2022/08/05 09:27:38;;;;;;;3.13;2.90;;;;;;;35.28;32.44;97431.81;7615686;23;20350;-69
2022/08/05 09:31:10;;;;;;;3.30;3.10;;;;;;;34.91;29.67;97433.19;7613592;23;20209;-69
2022/08/05 09:34:52;;;;;;;4.82;3.22;;;;;;;35.00;29.46;97434.19;7589828;23;20240;-69
2022/08/05 09:37:57;;;;;;;5.55;3.65;;;;;;;35.07;30.71;97429.19;7613788;23;20221;-69
2022/08/05 09:41:18;;;;;;;3.40;3.10;;;;;;;35.48;30.60;97420.63;7614778;23;20216;-69
2022/08/05 09:44:37;;;;;;;4.20;3.80;;;;;;;35.41;29.71;97425.66;7615493;23;20221;-69
2022/08/05 09:47:41;;;;;;;4.78;3.30;;;;;;;35.30;30.00;97426.84;7614252;23;20606;-68
2022/08/05 09:50:59;;;;;;;4.30;3.50;;;;;;;35.44;29.00;97425.06;7587053;23;20212;-69
2022/08/05 09:54:05;;;;;;;3.15;2.85;;;;;;;35.76;29.43;97428.06;7589266;23;20209;-68
2022/08/05 09:57:07;;;;;;;4.57;3.38;;;;;;;35.69;29.68;97429.50;7614036;23;20187;-70
2022/08/05 10:00:24;;;;;;;5.05;3.42;;;;;;;35.88;28.93;97422.16;7613371;23;20205;-69
2022/08/05 10:03:28;;;;;;;3.60;3.30;;;;;;;35.95;28.91;97430.03;7587602;23;20231;-68
2022/08/05 10:06:55;;;;;;;4.57;3.75;;;;;;;35.72;28.66;97428.91;7588485;23;20208;-69
2022/08/05 10:10:02;;;;;;;4.10;3.63;;;;;;;35.89;28.73;97429.31;7586507;23;20220;-69
2022/08/05 10:13:29;;;;;;;3.70;3.40;;;;;;;36.41;29.78;97428.41;7588701;23;20243;-68
2022/08/05 10:16:46;;;;;;;3.50;3.20;;;;;;;36.94;29.13;97425.44;7566549;23;20681;-68
2022/08/05 10:19:54;;;;;;;3.70;3.40;;;;;;;37.46;28.09;97423.50;7613490;23;20557;-69
2022/08/05 10:23:13;;;;;;;4.10;3.80;;;;;;;37.05;27.56;97418.66;7593853;23;20344;-69
2022/08/05 10:26:35;;;;;;;3.83;3.35;;;;;;;37.39;27.45;97421.16;7614710;23;20685;-69
2022/08/05 10:29:50;;;;;;;3.83;3.40;;;;;;;37.38;26.23;97408.50;7616547;23;20208;-69
2022/08/05 10:33:12;;;;;;;3.80;3.35;;;;;;;37.11;27.65;97413.91;7595711;23;20205;-69
2022/08/05 10:36:15;;;;;;;3.55;3.20;;;;;;;36.73;27.02;97415.91;7618209;23;20197;-69
2022/08/05 10:39:30;;;;;;;3.50;3.20;;;;;;;37.05;26.91;97410.41;7617733;23;20274;-69
2022/08/05 10:42:55;;;;;;;3.78;3.22;;;;;;;37.65;27.05;97414.09;7595763;23;20299;-69
2022/08/05 10:45:59;;;;;;;3.53;3.17;;;;;;;38.03;27.45;97411.97;7589945;23;20742;-68
2022/08/05 10:49:08;;;;;;;3.35;3.05;;;;;;;38.27;25.89;97397.16;7588247;23;20213;-69
2022/08/05 10:52:37;;;;;;;3.88;3.47;;;;;;;38.78;24.40;97405.16;7616417;23;20569;-69
2022/08/05 10:56:07;;;;;;;3.80;3.50;;;;;;;38.09;25.10;97398.94;7615946;23;20212;-68
2022/08/05 10:59:30;;;;;;;4.63;3.17;;;;;;;38.58;25.05;97391.81;7592945;23;20220;-69
2022/08/05 11:03:05;;;;;;;5.43;3.17;;;;;;;38.98;23.75;97406.63;7613044;23;20216;-68
2022/08/05 11:06:27;;;;;;;4.57;3.13;;;;;;;38.54;25.53;97393.56;7570771;23;20263;-69
2022/08/05 11:09:49;;;;;;;3.30;3.03;;;;;;;38.28;24.61;97399.63;7620649;23;20228;-69
2022/08/05 11:13:05;;;;;;;3.88;3.05;;;;;;;38.21;25.20;97399.22;7593790;23;20228;-70
2022/08/05 11:16:21;;;;;;;4.68;3.78;;;;;;;37.82;24.94;97387.91;7590715;23;20212;-68
2022/08/05 11:19:44;;;;;;;2.70;2.50;;;;;;;38.22;24.71;97391.78;7615854;23;20767;-68
2022/08/05 11:23:34;;;;;;;2.83;2.58;;;;;;;39.03;24.35;97389.97;7616427;23;20665;-69
2022/08/05 11:27:30;;;;;;;2.90;2.70;;;;;;;39.31;23.33;97388.69;7615758;23;20541;-69
2022/08/05 11:34:02;;;;;;;3.17;2.97;;;;;;;38.02;25.17;97393.81;7616018;23;20201;-69
2022/08/05 11:37:04;;;;;;;4.43;2.83;;;;;;;38.01;24.35;97391.34;7616295;23;20254;-69
2022/08/05 11:40:58;;;;;;;2.95;2.75;;;;;;;38.38;25.16;97393.88;7594131;23;20253;-68
2022/08/05 11:44:28;;;;;;;3.20;2.90;;;;;;;38.80;23.63;97391.84;7595158;23;20204;-69
2022/08/05 11:47:52;;;;;;;2.60;2.40;;;;;;;39.76;23.73;97383.88;7616352;23;20239;-69
2022/08/05 11:50:56;;;;;;;3.38;2.35;;;;;;;40.41;22.26;97382.34;7591562;23;20226;-69
2022/08/05 11:54:01;;;;;;;3.30;2.42;;;;;;;39.79;21.62;97376.91;7589883;23;20220;-69
2022/08/05 11:57:04;;;;;;;2.58;2.38;;;;;;;39.56;22.13;97373.38;7616240;23;20238;-69
2022/08/05 12:00:26;;;;;;;6.35;2.30;;;;;;;39.79;21.62;97379.66;7616467;23;20200;-69
2022/08/05 12:03:50;;;;;;;2.67;2.47;;;;;;;40.21;21.65;97375.44;7616644;23;20219;-68
2022/08/05 12:06:59;;;;;;;6.10;3.78;;;;;;;40.55;21.37;97378.25;7615701;23;20208;-69
2022/08/05 12:10:03;;;;;;;2.50;2.30;;;;;;;41.00;20.27;97385.47;7590218;23;20380;-69
2022/08/05 12:13:16;;;;;;;1.85;1.75;;;;;;;41.34;19.43;97379.88;7592611;23;20325;-69
2022/08/05 12:16:40;;;;;;;2.95;2.03;;;;;;;41.41;18.96;97384.94;7615900;23;20681;-69
2022/08/05 12:19:52;;;;;;;2.17;1.85;;;;;;;41.77;18.37;97385.31;7590598;23;20287;-70
2022/08/05 12:23:14;;;;;;;3.33;1.80;;;;;;;41.76;17.74;97393.94;7616617;23;20212;-70
2022/08/05 12:26:16;;;;;;;2.97;1.80;;;;;;;41.50;16.33;97389.28;7618382;23;20727;-68
2022/08/05 12:29:24;;;;;;;3.30;1.30;;;;;;;41.70;17.21;97378.66;7616479;23;20208;-68
2022/08/05 12:32:26;;;;;;;2.17;1.60;;;;;;;41.70;17.69;97379.47;7615669;23;20212;-69
2022/08/05 12:35:28;;;;;;;2.60;2.08;;;;;;;41.74;18.28;97371.28;7615466;23;20216;-69
2022/08/05 12:38:41;;;;;;;1.90;1.80;;;;;;;41.94;17.97;97390.78;7615470;23;20375;-69
2022/08/05 12:41:44;;;;;;;3.10;2.03;;;;;;;41.74;17.84;97385.16;7615769;23;20208;-68
2022/08/05 12:44:46;;;;;;;1.98;1.70;;;;;;;41.61;18.14;97376.75;7615298;23;20696;-68
2022/08/05 12:47:48;;;;;;;2.33;1.65;;;;;;;41.81;17.76;97379.91;7616038;23;20208;-68
2022/08/05 12:51:19;;;;;;;2.05;1.85;;;;;;;41.06;18.33;97376.66;7614159;23;20197;-69
2022/08/05 12:54:42;;;;;;;2.40;2.05;;;;;;;41.22;18.73;97386.13;7614986;23;20212;-68
2022/08/05 12:57:45;;;;;;;2.17;2.03;;;;;;;41.34;18.65;97381.81;7615441;23;20597;-69
2022/08/05 13:01:07;;;;;;;2.25;1.88;;;;;;;41.42;18.25;97384.59;7614605;23;20689;-70
2022/08/05 13:04:52;;;;;;;3.92;2.40;;;;;;;41.27;18.07;97385.94;7538627;23;20221;-69
2022/08/05 13:07:58;;;;;;;2.25;2.03;;;;;;;41.52;18.18;97384.25;7538781;23;20225;-70
2022/08/05 13:11:02;;;;;;;2.60;2.28;;;;;;;42.12;17.61;97380.44;7540096;23;20218;-67
2022/08/05 13:14:16;;;;;;;2.50;2.00;;;;;;;42.22;17.17;97377.28;7513397;23;20304;-68
2022/08/05 13:17:25;;;;;;;2.50;2.30;;;;;;;41.72;18.04;97379.97;7540189;23;20285;-69
2022/08/05 13:20:43;;;;;;;2.42;2.28;;;;;;;40.95;18.63;97378.13;7514077;23;20218;-68
2022/08/05 13:23:45;;;;;;;2.85;2.10;;;;;;;40.74;18.65;97366.91;7538964;23;20213;-68
2022/08/05 13:26:52;;;;;;;3.53;2.28;;;;;;;41.16;18.24;97375.50;7538164;23;20214;-68
2022/08/05 13:29:55;;;;;;;3.25;2.40;;;;;;;41.40;18.58;97363.91;7514027;23;20218;-69
2022/08/05 13:33:17;;;;;;;2.30;2.10;;;;;;;40.88;19.10;97363.97;7537710;23;20212;-70
2022/08/05 13:36:39;;;;;;;2.10;2.00;;;;;;;41.81;19.01;97366.88;7605383;23;20215;-69
2022/08/05 13:39:41;;;;;;;2.58;2.35;;;;;;;42.73;17.59;97364.97;7614902;23;20589;-68
2022/08/05 13:43:03;;;;;;;2.10;2.00;;;;;;;43.12;17.21;97359.28;7615509;23;20205;-69
2022/08/05 13:46:14;;;;;;;3.78;2.13;;;;;;;43.07;16.86;97354.75;7589769;23;20209;-68
2022/08/05 13:49:36;;;;;;;2.30;2.10;;;;;;;43.05;16.94;97343.16;7617858;23;20216;-69
2022/08/05 13:52:46;;;;;;;2.45;2.25;;;;;;;42.50;17.33;97341.53;7615880;23;20689;-68
2022/08/05 13:55:50;;;;;;;2.28;2.17;;;;;;;42.48;17.45;97352.16;7616106;23;20740;-67
2022/08/05 13:59:01;;;;;;;2.47;2.33;;;;;;;43.44;16.78;97341.78;7613920;23;20217;-68
2022/08/05 14:02:20;;;;;;;2.42;2.08;;;;;;;45.03;15.99;97336.84;7613963;23;20486;-68
2022/08/05 14:05:27;;;;;;;3.42;2.60;;;;;;;45.76;15.02;97325.28;7614660;23;20647;-67
2022/08/05 14:08:49;;;;;;;2.50;2.38;;;;;;;47.01;14.17;97326.97;7614557;23;20216;-66
2022/08/05 14:11:53;;;;;;;2.65;2.45;;;;;;;48.88;12.92;97334.00;7614864;23;20550;-67
2022/08/05 14:15:16;;;;;;;2.65;2.45;;;;;;;50.61;11.32;97317.09;7614183;23;20207;-66
2022/08/05 14:18:38;;;;;;;3.05;2.22;;;;;;;51.71;11.17;97310.97;7613278;23;20219;-67
2022/08/05 14:21:40;;;;;;;2.70;2.20;;;;;;;52.34;10.58;97312.91;7616040;23;20574;-67
2022/08/05 14:25:03;;;;;;;2.55;2.35;;;;;;;52.23;10.16;97303.69;7613887;23;20208;-67
2022/08/05 14:28:20;;;;;;;4.70;2.30;;;;;;;52.02;10.17;97307.31;7614302;23;20220;-67
2022/08/05 14:31:28;;;;;;;2.40;2.30;;;;;;;51.69;10.07;97288.84;7613868;23;20585;-68
2022/08/05 14:34:50;;;;;;;2.78;2.58;;;;;;;51.73;10.12;97298.06;7613859;23;20601;-68
2022/08/05 14:37:52;;;;;;;2.70;2.50;;;;;;;50.22;11.01;97302.81;7614308;23;20740;-67
2022/08/05 14:40:56;;;;;;;2.63;2.42;;;;;;;50.37;11.14;97292.47;7588336;23;20552;-67
2022/08/05 14:43:58;;;;;;;2.22;2.13;;;;;;;50.81;10.88;97289.47;7613717;23;20677;-68
2022/08/05 14:47:10;;;;;;;2.63;2.38;;;;;;;52.05;10.28;97295.25;7614205;23;20299;-68
2022/08/05 14:50:12;;;;;;;2.78;2.30;;;;;;;52.59;10.91;97284.69;7563256;23;20234;-68
2022/08/05 14:53:20;;;;;;;3.15;2.40;;;;;;;53.20;9.43;97290.84;7614935;23;20253;-66
2022/08/05 14:56:22;;;;;;;3.00;2.47;;;;;;;50.28;11.54;97289.22;7614192;23;20400;-67
2022/08/05 14:59:27;;;;;;;2.65;2.22;;;;;;;51.55;10.70;97289.66;7613919;23;20247;-67
2022/08/05 15:02:36;;;;;;;3.65;2.33;;;;;;;51.63;10.97;97288.44;7613655;23;20212;-67
2022/08/05 15:05:40;;;;;;;2.30;2.10;;;;;;;51.47;10.36;97290.03;7620372;23;20585;-68
2022/08/05 15:09:03;;;;;;;3.03;2.08;;;;;;;51.76;10.34;97296.47;7614044;23;20309;-68
2022/08/05 15:12:06;;;;;;;3.15;2.33;;;;;;;51.39;10.97;97297.66;7615268;23;20188;-68
2022/08/05 15:15:10;;;;;;;2.33;2.22;;;;;;;49.83;11.31;97308.09;7614328;23;20195;-68